• Join FlightAware (Why Join?)
  • Login
  • US Flag 
05:39AM EST


 

Airport Tracker/Info


-or-


 

Live Flight TrackerFlight Track Log ✈ UPS35 ✈ 06-Oct-2013 ✈ YSSY / SYD - RKSI / ICN

Flight Track Log - Related Links

Times and Time Zones

All times are in EDT time to prevent confusion due to time zone crossing. See the UPS35 flight status page for this flight to view local times or setup timezone preferences in your user account.

Time Position Orientation Groundspeed Altitude Reporting Facility
EDT Latitude Longitude Course Direction KTS MPH feet Rate Location/Type
07:35AM -33.9389 151.1740 169° South 130 150  Level FlightAware ADS-B (YRAY)
07:36AM -33.9548 151.1781 168° South 182 209 500 2,160 Climbing FlightAware ADS-B (YRAY)
07:36AM -33.9713 151.1822 168° South 181 208 1,500 2,760 Climbing FlightAware ADS-B (YRAY)
07:36AM -33.9798 151.1836 173° South 182 209 1,900 2,460 Climbing FlightAware ADS-B (YRAY)
07:37AM -33.9976 151.1822 184° South 195 224 2,700 2,460 Climbing FlightAware ADS-B (YRAY)
07:37AM -34.0139 151.1798 187° South 202 232 3,500 2,160 Climbing FlightAware ADS-B
07:37AM -34.0249 151.1786 185° South 217 250 3,800 1,080 Climbing FlightAware ADS-B
07:37AM -34.0367 151.1790 178° South 244 281 3,900 1,140 Climbing FlightAware ADS-B (YRAY)
07:38AM -34.0551 151.1833 169° South 267 307 4,300 1,560 Climbing FlightAware ADS-B (YRAY)
07:38AM -34.0596 151.1845 167° South 244 281 4,400 2,640 Climbing FlightAware ADS-B
07:38AM -34.0899 151.1937 166° South 297 342 5,500 2,880 Climbing FlightAware ADS-B
07:38AM -34.1003 151.1971 165° South 267 307 5,900 3,600 Climbing FlightAware ADS-B (YRAY)
07:39AM -34.1273 151.2063 164° South 306 352 7,300 3,900 Climbing FlightAware ADS-B
07:39AM -34.1621 151.2163 167° South 289 333 8,900 3,840 Climbing FlightAware ADS-B
07:39AM -34.1746 151.2149 185° South 280 322 9,500 3,600 Climbing FlightAware ADS-B
07:39AM -34.1858 151.2111 196° South 274 315 10,100 3,600 Climbing FlightAware ADS-B
07:39AM -34.1989 151.2033 206° Southwest 270 311 10,700 2,820 Climbing FlightAware ADS-B
07:40AM -34.2078 151.1951 218° Southwest 276 318 11,000 1,260 Climbing FlightAware ADS-B
07:40AM -34.2149 151.1846 231° Southwest 282 325 11,100 840 Climbing FlightAware ADS-B
07:40AM -34.2211 151.1556 255° West 299 344 11,400 1,200 Climbing FlightAware ADS-B
07:40AM -34.2207 151.1490 275° West 313 360 11,600 1,020 Climbing FlightAware ADS-B
07:40AM -34.2151 151.1275 287° West 333 383 11,700 900 Climbing FlightAware ADS-B
07:40AM -34.2062 151.1110 303° West 356 410 11,900 1,200 Climbing FlightAware ADS-B
07:41AM -34.1927 151.0968 319° Northwest 383 441 12,100 1,560 Climbing FlightAware ADS-B
07:41AM -34.1787 151.0877 332° Northwest 401 461 12,400 2,820 Climbing FlightAware ADS-B
07:41AM -34.1673 151.0829 341° North 413 475 13,000 3,660 Climbing FlightAware ADS-B
07:41AM -34.1411 151.0764 348° North 419 482 13,700 4,200 Climbing FlightAware ADS-B
07:41AM -34.1042 151.0642 345° North 410 472 15,100 3,240 Climbing FlightAware ADS-B (YRAY)
07:42AM -34.0505 151.0345 335° Northwest 425 489 16,400 2,280 Climbing FlightAware ADS-B (YRAY)
07:42AM -34.0176 151.0109 329° Northwest 435 501 17,000 2,520 Climbing FlightAware ADS-B (YRAY)
07:43AM -33.9629 150.9756 332° Northwest 449 517 18,500 2,820 Climbing FlightAware ADS-B (YRAY)
07:43AM -33.9022 150.9417 335° Northwest 462 532 19,900 2,580 Climbing FlightAware ADS-B (YRAY)
07:44AM -33.8423 150.9086 335° Northwest 479 551 21,200 2,700 Climbing FlightAware ADS-B (YRAY)
07:44AM -33.7782 150.8740 335° Northwest 482 555 22,700 2,580 Climbing FlightAware ADS-B
07:44AM -33.7768 150.8733 335° Northwest 461 531 22,600 2,580 Descending Aus ATC (RADAR)
07:45AM -33.7145 150.8396 336° Northwest 487 560 24,100 2,580 Climbing FlightAware ADS-B
07:45AM -33.6428 150.8008 336° Northwest 495 570 25,400 2,160 Climbing FlightAware ADS-B
07:46AM -33.6141 150.7854 336° Northwest 502 578 25,800 1,560 Climbing FlightAware ADS-B
07:46AM -33.5931 150.7759 339° North 518 596 26,000 1,500 Climbing FlightAware ADS-B
07:46AM -33.5236 150.7542 345° North 522 601 26,800 2,160 Climbing FlightAware ADS-B
07:47AM -33.4457 150.7314 346° North 511 588 28,300 3,000 Climbing FlightAware ADS-B
07:47AM -33.3834 150.7130 346° North 497 572 30,000 2,340 Climbing FlightAware ADS-B
07:48AM -33.3045 150.6893 346° North 482 555 30,800 1,860 Climbing Aus ATC (RADAR)
07:48AM -33.2983 150.6873 346° North 497 572 31,100 1,620 Climbing FlightAware ADS-B
07:49AM -33.2165 150.6631 346° North 503 579 31,900 1,140 Climbing FlightAware ADS-B
07:49AM -33.1568 150.6453 346° North 510 587 32,400 1,080 Climbing FlightAware ADS-B
07:50AM -33.0775 150.6218 346° North 512 589 33,000 840 Climbing FlightAware ADS-B
07:50AM -32.9940 150.5976 346° North 512 589 33,400 900 Climbing Aus ATC (RADAR)
07:50AM -32.9911 150.5963 346° North 519 597 33,600 780 Climbing FlightAware ADS-B
07:51AM -32.8885 150.5658 346° North 514 592 34,000 300 Climbing FlightAware ADS-B
07:52AM -32.8056 150.5415 346° North 515 593 34,000  Level FlightAware ADS-B
07:52AM -32.7333 150.5202 346° North 516 594 34,000  Level FlightAware ADS-B
07:53AM -32.6530 150.4964 346° North 516 594 34,000 -180 Level FlightAware ADS-B
07:53AM -32.5430 150.4643 346° North 512 589 33,800  Descending Aus ATC (RADAR)
07:54AM -32.5370 150.4630 346° North 509 586 34,000 240 Climbing FlightAware
07:54AM -32.4530 150.4380 346° North 510 587 34,000  Level FlightAware
07:55AM -32.3750 150.4150 346° North 511 588 34,000  Level FlightAware
07:55AM -32.2950 150.3920 346° North 510 587 34,000 -180 Level FlightAware
07:56AM -32.2105 150.3681 346° North 510 587 33,800  Descending Aus ATC (RADAR)
07:56AM -32.2130 150.3680 346° North 510 587 34,000 300 Climbing FlightAware
07:56AM -32.1340 150.3450 346° North 500 575 34,000  Level FlightAware
07:57AM -32.0520 150.3220 347° North 499 574 34,000  Level FlightAware
07:58AM -31.9750 150.3000 346° North 500 575 34,000  Level FlightAware
07:58AM -31.9070 150.2800 346° North 500 575 34,000 -240 Level FlightAware
07:58AM -31.8934 150.2769 346° North 500 575 33,900 -180 Descending Aus ATC (RADAR)
07:59AM -31.8221 150.2556 346° North 510 587 33,900 120 Level Aus ATC (RADAR)
07:59AM -31.8170 150.2540 346° North 511 588 34,000 120 Climbing FlightAware
07:59AM -31.7320 150.2300 346° North 514 592 34,000  Level FlightAware
08:00AM -31.6603 150.2094 346° North 515 593 34,000 120 Level Aus ATC (RADAR)
08:00AM -31.6510 150.2070 346° North 514 592 34,100 120 Climbing FlightAware
08:01AM -31.5720 150.1840 346° North 515 593 34,100 -120 Level FlightAware
08:01AM -31.4920 150.1610 346° North 515 593 34,000  Descending FlightAware
08:02AM -31.4070 150.1370 346° North 513 590 34,100 60 Climbing FlightAware
08:02AM -31.3230 150.1130 346° North 513 590 34,100 -120 Level FlightAware
08:03AM -31.2420 150.0900 346° North 511 588 34,000 -120 Descending FlightAware
08:03AM -31.1630 150.0680 347° North 500 575 34,000  Level FlightAware
08:04AM -31.0770 150.0430 346° North 497 572 34,000  Level FlightAware
08:05AM -30.9920 150.0190 346° North 496 571 34,000  Level FlightAware
08:05AM -30.9160 149.9970 346° North 496 571 34,000  Level FlightAware
08:06AM -30.8410 149.9770 347° North 495 570 34,000 -120 Level FlightAware
08:06AM -30.7588 149.9534 347° North 499 574 33,900  Descending Aus ATC (RADAR)
08:07AM -30.7180 149.9420 347° North 497 572 34,000 60 Climbing FlightAware
08:07AM -30.6193 149.9143 347° North 504 580 34,000  Level Aus ATC (RADAR)
08:07AM -30.6500 149.9220 347° North 497 572 34,000  Level FlightAware
08:08AM -30.5800 149.9020 346° North 497 572 34,000  Level FlightAware
08:09AM -30.5120 149.8820 346° North 497 572 34,000  Level FlightAware
08:09AM -30.4470 149.8630 346° North 497 572 34,000  Level FlightAware
08:10AM -30.3750 149.8420 346° North 497 572 34,000 -180 Level FlightAware
08:10AM -30.2768 149.8209 346° North 511 588 33,900  Descending Aus ATC (RADAR)
08:10AM -30.3070 149.8230 346° North 497 572 34,000  Climbing FlightAware
08:11AM -30.1239 149.7884 346° North 516 594 33,900  Descending Aus ATC (RADAR)
08:11AM -30.2250 149.7990 346° North 497 572 34,000 120 Climbing FlightAware
08:12AM -30.1550 149.7790 346° North 497 572 34,000  Level FlightAware
08:12AM -30.0870 149.7590 346° North 497 572 34,000  Level FlightAware
08:13AM -30.0170 149.7390 346° North 497 572 34,000  Level FlightAware
08:14AM -29.9520 149.7210 347° North 497 572 34,000  Level FlightAware
08:14AM -29.8840 149.7010 346° North 497 572 34,000  Level FlightAware
08:15AM -29.8160 149.6810 346° North 497 572 34,000  Level FlightAware
08:15AM -29.7470 149.6620 347° North 497 572 34,000  Level FlightAware
08:16AM -29.6830 149.6430 346° North 497 572 34,000 -120 Level FlightAware
08:17AM -29.3398 149.6215 346° North 525 604 33,900 -120 Descending Aus ATC (RADAR)
08:18AM -29.1963 149.5911 350° North 527 606 33,900  Level Aus ATC (RADAR)
08:19AM -29.0294 149.5559 350° North 524 603 33,900  Level Aus ATC (RADAR)
08:20AM -28.8742 149.5237 350° North 524 603 33,900  Level Aus ATC (RADAR)
08:21AM -28.7313 149.4931 349° North 524 603 33,900  Level Aus ATC (RADAR)
08:22AM -28.5785 149.4614 350° North 522 601 33,900  Level Aus ATC (RADAR)
08:23AM -28.4177 149.4298 350° North 526 605 33,900  Level Aus ATC (RADAR)
08:24AM -28.2737 149.4005 350° North 526 605 33,900  Level Aus ATC (RADAR)
08:25AM -28.1319 149.3624 347° North 533 613 33,900  Level Aus ATC (RADAR)
08:26AM -27.9850 149.3067 341° North 524 603 33,900  Level Aus ATC (RADAR)
08:27AM -27.8439 149.2490 340° North 519 597 33,900  Level Aus ATC (RADAR)
08:28AM -27.6567 149.1825 343° North 519 597 33,900  Level Aus ATC (RADAR)
08:29AM -27.5123 149.1289 342° North 516 594 33,900  Level Aus ATC (RADAR)
08:31AM -27.3060 149.0545 342° North 519 597 33,900  Level Aus ATC (RADAR)
08:32AM -27.1689 149.0049 342° North 516 594 33,900  Level Aus ATC (RADAR)
08:33AM -27.0205 148.9513 342° North 516 594 34,000  Climbing Aus ATC (RADAR)
08:34AM -26.8838 148.9026 342° North 513 590 34,000  Level Aus ATC (RADAR)
08:35AM -26.7358 148.8497 342° North 513 590 34,000  Level Aus ATC (RADAR)
08:36AM -26.5991 148.8006 342° North 515 593 34,000  Level Aus ATC (RADAR)
08:37AM -26.4604 148.7538 343° North 529 609 34,000  Level Aus ATC (RADAR)
08:38AM -26.3106 148.7132 346° North 516 594 34,000  Level Aus ATC (RADAR)
08:39AM -26.1703 148.6723 345° North 519 597 34,000  Level Aus ATC (RADAR)
08:40AM -26.0191 148.6284 345° North 519 597 34,000  Level Aus ATC (RADAR)
08:41AM -25.8674 148.5842 345° North 521 600 34,000  Level Aus ATC (RADAR)
08:42AM -25.7275 148.5432 345° North 519 597 34,000  Level Aus ATC (RADAR)
08:44AM -25.5306 148.4863 345° North 517 595 34,000  Level Aus ATC (RADAR)
08:44AM -25.5340 148.4870 345° North 515 593 34,000  Level FlightAware
08:45AM -25.4440 148.4610 345° North 515 593 34,000  Level FlightAware
08:45AM -25.3710 148.4400 345° North 518 596 34,000  Level FlightAware
08:46AM -25.2860 148.4160 346° North 520 598 34,000  Level FlightAware
08:46AM -25.1943 148.3898 346° North 517 595 34,000  Level Aus ATC (RADAR)
08:46AM -25.1880 148.3880 346° North 522 601 34,000  Level FlightAware
08:47AM -25.1008 148.3631 346° North 521 600 34,000  Level Aus ATC (RADAR)
08:47AM -25.1030 148.3630 346° North 523 602 34,000  Level FlightAware
08:48AM -25.0280 148.3420 346° North 523 602 34,000  Level FlightAware
08:48AM -24.9550 148.3210 345° North 522 601 34,000 60 Level FlightAware
08:49AM -24.8620 148.2940 345° North 521 600 34,100 60 Climbing FlightAware
08:49AM -24.7617 148.2661 345° North 519 597 34,100  Level Aus ATC (RADAR)
08:49AM -24.7760 148.2700 345° North 519 597 34,100 -180 Level FlightAware
08:50AM -24.6710 148.2400 345° North 517 595 34,000 -180 Descending FlightAware
08:50AM -24.6575 148.2363 345° North 517 595 34,000  Level Aus ATC (RADAR)
08:51AM -24.5760 148.2130 346° North 518 596 34,000  Level FlightAware
08:51AM -24.4760 148.1840 345° North 518 596 34,000  Level FlightAware
08:52AM -24.4020 148.1630 346° North 520 598 34,000  Level FlightAware
08:53AM -24.2980 148.1340 346° North 520 598 34,000  Level FlightAware
08:53AM -24.2230 148.1130 346° North 521 600 34,000  Level FlightAware
08:54AM -24.1490 148.0920 345° North 522 601 34,000  Level FlightAware
08:54AM -24.0540 148.0650 345° North 523 602 34,000  Level FlightAware
08:55AM -23.9470 148.0350 346° North 523 602 34,000 60 Level FlightAware
08:56AM -23.8760 148.0140 345° North 522 601 34,100 60 Climbing FlightAware
08:56AM -23.7931 147.9914 345° North 521 600 34,100  Level Aus ATC (RADAR)
08:56AM -23.7720 147.9850 345° North 522 601 34,100  Level FlightAware
08:57AM -23.6940 147.9630 346° North 519 597 34,100 -120 Level FlightAware
08:58AM -23.6120 147.9400 346° North 516 594 34,000 -120 Descending FlightAware
08:58AM -23.5220 147.9150 346° North 513 590 34,000  Level FlightAware
08:59AM -23.4530 147.8960 346° North 512 589 34,000  Level FlightAware
08:59AM -23.3780 147.8750 346° North 510 587 34,000 120 Level FlightAware
08:59AM -23.3544 147.8691 346° North 510 587 34,100  Climbing Aus ATC (RADAR)
09:00AM -23.2820 147.8480 346° North 511 588 34,000 -120 Descending FlightAware
09:00AM -23.2190 147.8310 346° North 513 590 34,000  Level FlightAware
09:01AM -23.1430 147.8100 346° North 512 589 34,000  Level FlightAware
09:02AM -23.0450 147.7830 346° North 512 589 34,000  Level FlightAware
09:02AM -22.9740 147.7630 345° North 512 589 34,000 60 Level FlightAware
09:03AM -22.8840 147.7386 345° North 511 588 34,100  Climbing Aus ATC (RADAR)
09:03AM -22.8820 147.7370 345° North 512 589 34,000 -180 Descending FlightAware
09:04AM -22.7880 147.7110 346° North 512 589 34,000  Level FlightAware
09:04AM -22.7150 147.6910 346° North 512 589 34,000  Level FlightAware
09:05AM -22.6330 147.6680 345° North 512 589 34,000  Level FlightAware
09:05AM -22.5600 147.6470 345° North 511 588 34,000  Level FlightAware
09:06AM -22.4730 147.6210 345° North 513 590 34,000 120 Level FlightAware
09:06AM -22.4480 147.6143 345° North 513 590 34,100  Climbing Aus ATC (RADAR)
09:06AM -22.4000 147.5990 344° North 512 589 34,000  Descending FlightAware
09:07AM -22.2995 147.5702 344° North 512 589 34,100  Climbing Aus ATC (RADAR)
09:07AM -22.2880 147.5660 344° North 513 590 34,000 -180 Descending FlightAware
09:08AM -22.2160 147.5440 344° North 512 589 34,000  Level FlightAware
09:08AM -22.1320 147.5190 345° North 514 592 34,000  Level FlightAware
09:09AM -22.0500 147.4950 345° North 513 590 34,000 60 Level FlightAware
09:09AM -21.9810 147.4750 345° North 510 587 34,100 60 Climbing FlightAware
09:10AM -21.8940 147.4490 345° North 506 582 34,100 -120 Level FlightAware
09:11AM -21.8130 147.4250 345° North 506 582 34,000 -120 Descending FlightAware
09:11AM -21.7570 147.4090 345° North 506 582 34,000 60 Level FlightAware
09:12AM -21.6735 147.3856 345° North 500 575 34,100  Climbing Aus ATC (RADAR)
09:12AM -21.6650 147.3820 345° North 508 585 34,000  Descending FlightAware
09:12AM -21.5711 147.3555 345° North 508 585 34,100  Climbing Aus ATC (RADAR)
09:12AM -21.5720 147.3550 345° North 509 586 34,000 -180 Descending FlightAware
09:13AM -21.4990 147.3340 345° North 508 585 34,000  Level FlightAware
09:14AM -21.4020 147.3050 344° North 509 586 34,000  Level FlightAware
09:14AM -21.3210 147.2820 345° North 508 585 34,000  Level FlightAware
09:15AM -21.2380 147.2570 344° North 509 586 34,000  Level FlightAware
09:15AM -21.1590 147.2340 345° North 509 586 34,000 60 Level FlightAware
09:16AM -21.0823 147.2128 345° North 506 582 34,100  Climbing Aus ATC (RADAR)
09:16AM -21.0820 147.2120 345° North 508 585 34,000 -180 Descending FlightAware
09:17AM -20.9990 147.1870 344° North 509 586 34,000  Level FlightAware
09:17AM -20.9200 147.1650 345° North 510 587 34,000  Level FlightAware
09:18AM -20.8490 147.1440 345° North 511 588 34,000  Level FlightAware
09:18AM -20.7640 147.1190 345° North 512 589 34,000  Level FlightAware
09:19AM -20.6770 147.0940 345° North 514 592 34,000  Level FlightAware
09:19AM -20.5960 147.0710 345° North 515 593 34,000  Level FlightAware
09:20AM -20.5210 147.0490 345° North 515 593 34,000  Level FlightAware
09:20AM -20.5103 147.0471 345° North 513 590 34,000  Level Aus ATC (RADAR)
09:21AM -20.4390 147.0260 345° North 514 592 34,000  Level FlightAware
09:21AM -20.3604 147.0046 345° North 513 590 34,000 120 Level Aus ATC (RADAR)
09:21AM -20.3550 147.0010 345° North 514 592 34,100 120 Climbing FlightAware
09:22AM -20.2720 146.9770 345° North 514 592 34,100  Level FlightAware
09:22AM -20.1940 146.9550 345° North 513 590 34,100  Level FlightAware
09:23AM -20.1160 146.9330 345° North 511 588 34,100 -120 Level FlightAware
09:23AM -20.0390 146.9100 344° North 511 588 34,000 -120 Descending FlightAware
09:24AM -19.9570 146.8870 345° North 509 586 34,000  Level FlightAware
09:25AM -19.8800 146.8650 345° North 508 585 34,000  Level FlightAware
09:25AM -19.7970 146.8410 345° North 508 585 34,000  Level FlightAware
09:25AM -19.7890 146.8402 345° North 508 585 34,000  Level Aus ATC (RADAR)
09:26AM -19.7150 146.8180 345° North 508 585 34,000  Level FlightAware
09:26AM -19.6380 146.7960 345° North 507 583 34,000  Level FlightAware
09:27AM -19.5570 146.7730 345° North 506 582 34,000  Level FlightAware
09:28AM -19.4840 146.7520 345° North 505 581 34,000  Level FlightAware
09:28AM -19.3990 146.7280 345° North 504 580 34,000  Level FlightAware
09:29AM -19.3210 146.7050 344° North 503 579 34,000  Level FlightAware
09:29AM -19.2430 146.6830 344° North 502 578 34,000  Level FlightAware
09:29AM -19.2334 146.6826 344° North 503 579 34,000  Level Aus ATC (RADAR)
09:30AM -19.1720 146.6630 345° North 503 579 34,000  Level FlightAware
09:31AM -19.0920 146.6400 345° North 502 578 34,000  Level FlightAware
09:31AM -19.0761 146.6377 345° North 504 580 34,000  Level Aus ATC (RADAR)
09:31AM -19.0050 146.6160 345° North 502 578 34,000  Level FlightAware
09:32AM -18.9300 146.5950 345° North 503 579 34,000  Level FlightAware
09:32AM -18.8550 146.5730 344° North 502 578 34,000  Level FlightAware
09:33AM -18.7710 146.5500 345° North 502 578 34,000  Level FlightAware
09:33AM -18.7070 146.5320 345° North 502 578 34,000  Level FlightAware
09:34AM -18.6090 146.5040 345° North 502 578 34,000  Level FlightAware
09:35AM -18.5330 146.4830 345° North 503 579 34,000  Level FlightAware
09:35AM -18.4520 146.4600 345° North 504 580 34,000  Level FlightAware
09:36AM -18.3700 146.4370 345° North 503 579 34,000 120 Level FlightAware
09:36AM -18.3682 146.4368 345° North 494 568 34,100  Climbing Aus ATC (RADAR)
09:36AM -18.2900 146.4150 345° North 503 579 34,000 -120 Descending FlightAware
09:37AM -18.2170 146.3940 345° North 504 580 34,000  Level FlightAware
09:38AM -18.1370 146.3720 345° North 505 581 34,000  Level FlightAware
09:38AM -18.0580 146.3490 345° North 506 582 34,000  Level FlightAware
09:39AM -17.9830 146.3280 345° North 506 582 34,000  Level FlightAware
09:39AM -17.9010 146.3060 346° North 505 581 34,000  Level FlightAware
09:40AM -17.8180 146.2820 345° North 506 582 34,000  Level FlightAware
09:40AM -17.7390 146.2600 345° North 506 582 34,000  Level FlightAware
09:41AM -17.6640 146.2400 346° North 506 582 34,000  Level FlightAware
09:42AM -17.5860 146.2180 345° North 507 583 34,000  Level FlightAware
09:42AM -17.5010 146.1940 345° North 507 583 34,000 600 Level FlightAware
09:43AM -17.4200 146.1720 345° North 503 579 34,800 1,380 Climbing FlightAware
09:43AM -17.3380 146.1490 345° North 494 568 35,700 1,020 Climbing FlightAware
09:44AM -17.2630 146.1280 345° North 496 571 36,000 240 Climbing FlightAware
09:44AM -17.1960 146.1100 346° North 498 573 36,000  Level FlightAware
09:45AM -17.1140 146.0870 345° North 501 577 36,000  Level FlightAware
09:46AM -17.0400 146.0670 346° North 501 577 36,000  Level FlightAware
09:46AM -16.9480 146.0410 345° North 501 577 36,000  Level FlightAware
09:47AM -16.8720 146.0200 345° North 502 578 36,000  Level FlightAware
09:47AM -16.8070 146.0020 345° North 502 578 36,000  Level FlightAware
09:48AM -16.7220 145.9780 345° North 501 577 36,000 120 Level FlightAware
09:48AM -16.7127 145.9764 345° North 492 566 36,100  Climbing Aus ATC (RADAR)
09:49AM -16.6390 145.9560 346° North 502 578 36,000  Descending FlightAware
09:49AM -16.5672 145.9360 346° North 489 563 36,100  Climbing Aus ATC (RADAR)
09:49AM -16.5480 145.9310 346° North 502 578 36,000 -180 Descending FlightAware
09:50AM -16.4700 145.9090 345° North 501 577 36,000  Level FlightAware
09:50AM -16.3890 145.8870 345° North 502 578 36,000  Level FlightAware
09:51AM -16.3170 145.8670 345° North 504 580 36,000  Level FlightAware
09:52AM -16.2380 145.8460 346° North 505 581 36,000  Level FlightAware
09:52AM -16.1580 145.8240 346° North 505 581 36,000  Level FlightAware
09:52AM -16.1509 145.8211 346° North 496 571 36,000  Level Aus ATC (RADAR)
09:53AM -16.0640 145.7980 345° North 498 573 36,000  Level FlightAware
09:54AM -15.9730 145.7730 345° North 498 573 36,000 60 Level FlightAware
09:54AM -15.8920 145.7510 345° North 498 573 36,100 60 Climbing FlightAware
09:55AM -15.8270 145.7330 345° North 496 571 36,100  Level FlightAware
09:55AM -15.7710 145.7180 346° North 496 571 36,100  Level FlightAware
09:56AM -15.7020 145.6980 344° North 496 571 36,100  Level FlightAware
09:56AM -15.6340 145.6800 346° North 496 571 36,100  Level FlightAware
09:57AM -15.5660 145.6610 345° North 496 571 36,100  Level FlightAware
09:58AM -15.4980 145.6420 345° North 496 571 36,100  Level FlightAware
09:58AM -15.4300 145.6230 345° North 496 571 36,100  Level FlightAware
09:59AM -15.3610 145.6040 345° North 496 571 36,100  Level FlightAware
09:59AM -15.2930 145.5850 345° North 496 571 36,100 -120 Level FlightAware
10:00AM -15.0961 145.5335 345° North 493 567 36,000  Descending Aus ATC (RADAR)
10:00AM -15.2250 145.5660 345° North 496 571 36,100 120 Climbing FlightAware
10:01AM -15.1570 145.5470 345° North 496 571 36,100  Level FlightAware
10:01AM -15.0890 145.5280 345° North 496 571 36,100 -180 Level FlightAware
10:01AM -14.9294 145.4886 345° North 491 565 36,000  Descending Aus ATC (RADAR)
10:02AM -15.0200 145.5090 345° North 496 571 36,100  Climbing FlightAware
10:02AM -14.7843 145.4492 345° North 495 570 36,000  Descending Aus ATC (RADAR)
10:02AM -14.9500 145.4900 345° North 496 571 36,100 120 Climbing FlightAware
10:03AM -14.8820 145.4710 345° North 496 571 36,100  Level FlightAware
10:04AM -14.8120 145.4510 345° North 496 571 36,100  Level FlightAware
10:04AM -14.7450 145.4330 345° North 496 571 36,100  Level FlightAware
10:05AM -14.3685 145.3378 345° North 499 574 36,100  Level Aus ATC (RADAR)
10:07AM -14.2180 145.3126 351° North 501 577 36,100 -60 Level Aus ATC (RADAR)
10:08AM -14.0786 145.2898 351° North 504 580 36,000  Descending Aus ATC (RADAR)
10:09AM -13.9277 145.2679 352° North 501 577 36,100  Climbing Aus ATC (RADAR)
10:10AM -13.7885 145.2465 352° North 498 573 36,000 -60 Descending Aus ATC (RADAR)
10:11AM -13.6261 145.2159 350° North 503 579 36,000  Level Aus ATC (RADAR)
10:12AM -13.4861 145.1973 353° North 501 577 36,100  Climbing Aus ATC (RADAR)
10:13AM -13.3367 145.1739 351° North 494 568 36,000 -60 Descending Aus ATC (RADAR)
10:14AM -13.1663 145.1495 352° North 489 563 36,000 -60 Level Aus ATC (RADAR)
10:15AM -13.0315 145.1242 350° North 486 559 35,900  Descending Aus ATC (RADAR)
10:16AM -12.8504 145.0952 351° North 488 562 36,000  Climbing Aus ATC (RADAR)
10:17AM -12.7713 145.0828 351° North 489 563 36,000 60 Level Aus ATC (RADAR)
10:23AM -11.9480 144.9523 351° North 36,000 60 Level Aus ATC (Calculated)
10:24AM -11.8068 144.9300 351° North 36,000 60 Level Aus ATC (Calculated)
10:26AM -12.0204 144.9643 171° South  Level FlightAware Approximate
10:27AM -11.8947 144.9441 351° North  Level FlightAware Approximate
10:28AM -12.0204 144.9643 171° South  Level FlightAware Approximate
10:29AM -11.8947 144.9441 351° North  Level FlightAware Approximate
10:30AM -12.0204 144.9643 171° South  Level FlightAware Approximate
10:31AM -11.9289 144.9498 351° North  Level FlightAware Approximate
10:32AM -11.8032 144.9299 351° North  Level FlightAware Approximate
10:33AM -11.6775 144.9100 351° North  Level FlightAware Approximate
10:34AM -11.5518 144.8902 351° North  Level FlightAware Approximate
10:35AM -11.4261 144.8704 351° North  Level FlightAware Approximate
10:36AM -11.3003 144.8506 351° North  Level FlightAware Approximate
10:37AM -11.1746 144.8308 351° North  Level FlightAware Approximate
10:38AM -11.0489 144.8111 351° North  Level FlightAware Approximate
10:39AM -10.9232 144.7913 351° North  Level FlightAware Approximate
10:40AM -10.7975 144.7716 351° North  Level FlightAware Approximate
10:41AM -10.6717 144.7519 351° North  Level FlightAware Approximate
10:42AM -10.5460 144.7322 351° North  Level FlightAware Approximate
10:43AM -10.4203 144.7125 351° North  Level FlightAware Approximate
10:43AM -9.4030 144.5550 351° North 476 548 38,000  Level FlightAware
10:43AM -9.1373 144.5124 171° South 36,000  Descending Aus ATC (Calculated)
10:43AM -9.3290 144.5430 351° North 476 548 38,000 1,740 Climbing FlightAware
10:44AM -9.2620 144.5320 351° North 476 548 38,000  Level FlightAware
10:44AM -9.1940 144.5210 351° North 476 548 38,000  Level FlightAware
10:45AM -9.1250 144.5100 351° North 476 548 38,000  Level FlightAware
10:46AM -9.0590 144.5000 351° North 476 548 38,000  Level FlightAware
10:46AM -8.9920 144.4890 351° North 476 548 38,000  Level FlightAware
10:47AM -8.9260 144.4780 351° North 476 548 38,000  Level FlightAware
10:47AM -8.8590 144.4680 352° North 476 548 38,000  Level FlightAware
10:48AM -8.7920 144.4570 351° North 476 548 38,000  Level FlightAware
10:49AM -8.7220 144.4460 351° North 476 548 38,000  Level FlightAware
10:49AM -8.6560 144.4350 351° North 476 548 38,000  Level FlightAware
10:50AM -8.5890 144.4250 352° North 476 548 38,000  Level FlightAware
10:50AM -8.5260 144.4140 350° North 476 548 38,000  Level FlightAware
10:51AM -8.4560 144.4030 351° North 476 548 38,000  Level FlightAware
10:52AM -8.3890 144.3930 352° North 476 548 38,000  Level FlightAware
10:52AM -8.3210 144.3820 351° North 476 548 38,000  Level FlightAware
10:55AM -8.0379 144.3396 352° North  Level FlightAware Approximate
10:56AM -7.9120 144.3208 352° North  Level FlightAware Approximate
10:57AM -7.7862 144.3019 352° North  Level FlightAware Approximate
10:58AM -7.6604 144.2831 352° North  Level FlightAware Approximate
10:59AM -7.5345 144.2643 352° North  Level FlightAware Approximate
11:00AM -7.4085 144.2475 358° North  Level FlightAware Approximate
11:01AM -7.2814 144.2432 358° North  Level FlightAware Approximate
11:02AM -7.1542 144.2389 358° North  Level FlightAware Approximate
11:03AM -7.0271 144.2346 358° North  Level FlightAware Approximate
11:04AM -6.9000 144.2303 358° North  Level FlightAware Approximate
11:05AM -6.7728 144.2260 358° North  Level FlightAware Approximate
11:05AM -6.0334 144.2012 358° North 38,000  Level Aus ATC (Calculated)
11:07AM -5.7897 144.1930 358° North  Level FlightAware Approximate
11:08AM -5.6626 144.1887 358° North  Level FlightAware Approximate
11:09AM -5.5355 144.1844 358° North  Level FlightAware Approximate
11:10AM -5.4083 144.1802 358° North  Level FlightAware Approximate
11:11AM -5.2812 144.1759 358° North  Level FlightAware Approximate
11:12AM -5.1540 144.1717 358° North  Level FlightAware Approximate
11:13AM -5.0269 144.1674 358° North  Level FlightAware Approximate
11:14AM -4.8998 144.1631 358° North  Level FlightAware Approximate
11:15AM -4.7726 144.1589 358° North  Level FlightAware Approximate
11:16AM -4.6455 144.1546 358° North  Level FlightAware Approximate
11:17AM -4.5183 144.1504 358° North  Level FlightAware Approximate
11:18AM -4.3912 144.1461 358° North  Level FlightAware Approximate
11:19AM -4.2641 144.1419 358° North  Level FlightAware Approximate
11:20AM -4.1369 144.1376 358° North  Level FlightAware Approximate
11:21AM -4.0098 144.1334 358° North  Level FlightAware Approximate
11:22AM -3.8826 144.1292 358° North  Level FlightAware Approximate
11:23AM -3.7555 144.1249 358° North  Level FlightAware Approximate
11:24AM -3.6284 144.1207 358° North  Level FlightAware Approximate
11:25AM -3.5012 144.1165 358° North  Level FlightAware Approximate
11:26AM -3.3741 144.1122 358° North  Level FlightAware Approximate
11:27AM -3.2469 144.1080 358° North  Level FlightAware Approximate
11:28AM -3.1198 144.1037 358° North  Level FlightAware Approximate
11:29AM -2.9927 144.0995 358° North  Level FlightAware Approximate
11:30AM -2.8655 144.0953 358° North  Level FlightAware Approximate
11:31AM -2.7384 144.0910 358° North  Level FlightAware Approximate
11:32AM -2.6112 144.0868 358° North  Level FlightAware Approximate
11:33AM -2.4841 144.0826 358° North  Level FlightAware Approximate
11:34AM -2.3570 144.0783 358° North  Level FlightAware Approximate
11:35AM -2.2298 144.0741 358° North  Level FlightAware Approximate
11:36AM -2.1027 144.0699 358° North  Level FlightAware Approximate
11:37AM -1.9755 144.0656 358° North  Level FlightAware Approximate
11:38AM -1.8484 144.0614 358° North  Level FlightAware Approximate
11:39AM -1.7213 144.0572 358° North  Level FlightAware Approximate
11:40AM -1.5941 144.0530 358° North  Level FlightAware Approximate
11:41AM -1.4670 144.0487 358° North  Level FlightAware Approximate
11:42AM -1.3398 144.0445 358° North  Level FlightAware Approximate
11:43AM -1.2127 144.0403 358° North  Level FlightAware Approximate
11:44AM -1.0856 144.0361 358° North  Level FlightAware Approximate
11:45AM -0.9584 144.0318 358° North  Level FlightAware Approximate
11:46AM -0.8313 144.0276 358° North  Level FlightAware Approximate
11:47AM -0.7041 144.0234 358° North  Level FlightAware Approximate
11:48AM -0.5770 144.0192 358° North  Level FlightAware Approximate
11:49AM -0.4499 144.0150 358° North  Level FlightAware Approximate
11:50AM -0.3227 144.0107 358° North  Level FlightAware Approximate
11:51AM -0.1956 144.0065 358° North  Level FlightAware Approximate
11:52AM -0.0684 144.0023 358° North  Level FlightAware Approximate
11:53AM 0.0587 143.9980 358° North  Level FlightAware Approximate
11:53AM 0.0000 144.0000 356° North 482 555 38,000  Level Oakland Oceanic (ODAPS)
11:54AM -0.0684 144.0023 178° South  Level FlightAware Approximate
11:55AM 0.0587 143.9980 358° North  Level FlightAware Approximate
11:56AM -0.0684 144.0023 178° South  Level FlightAware Approximate
11:57AM 0.0587 143.9980 358° North  Level FlightAware Approximate
11:57AM 0.4833 143.9667 356° North 481 554 38,000  Level Oakland Oceanic (ODAPS)
11:58AM -0.0684 144.0023 178° South  Level FlightAware Approximate
11:59AM 0.0500 143.9558 356° North  Level Estimated
12:00PM 0.8108 143.9380 356° North 482 555 38,000  Level FlightAware Transoceanic
12:01PM 0.9459 143.9277 356° North 482 555 38,000  Level FlightAware Transoceanic
12:02PM 1.0811 143.9173 356° North 482 555 38,000  Level FlightAware Transoceanic
12:03PM 1.1677 143.9138 356° North 481 554 38,000  Level FlightAware Transoceanic
12:04PM 1.3046 143.9032 356° North 481 554 38,000  Level FlightAware Transoceanic
12:04PM 1.3000 143.9000 356° North 472 543 38,000  Level Oakland Oceanic (ODAPS)
12:05PM 1.4414 143.8926 356° North 481 554 38,000  Level FlightAware Transoceanic
12:06PM 1.5783 143.8820 356° North 481 554 38,000  Level FlightAware Transoceanic
12:07PM 1.7152 143.8714 356° North 481 554 38,000  Level FlightAware Transoceanic
12:08PM 1.8520 143.8609 356° North 481 554 38,000  Level FlightAware Transoceanic
12:09PM 1.9889 143.8503 356° North 481 554 38,000  Level FlightAware Transoceanic
12:10PM 2.0929 143.8394 356° North 472 543 38,000  Level FlightAware Transoceanic
12:11PM 2.2250 143.8293 356° North 472 543 38,000  Level FlightAware Transoceanic
12:12PM 2.3572 143.8192 356° North 472 543 38,000  Level FlightAware Transoceanic
12:13PM 2.4893 143.8091 356° North 472 543 38,000  Level FlightAware Transoceanic
12:14PM 2.6214 143.7990 356° North 472 543 38,000  Level FlightAware Transoceanic
12:15PM 2.7536 143.7889 356° North 472 543 38,000  Level FlightAware Transoceanic
12:16PM 2.8857 143.7788 356° North 472 543 38,000  Level FlightAware Transoceanic
12:17PM 3.0179 143.7687 356° North 472 543 38,000  Level FlightAware Transoceanic
12:17PM 3.1000 143.7667 356° North 478 550 38,000  Level Oakland Oceanic (ODAPS)
12:18PM 3.1500 143.7586 356° North 472 543 38,000  Level FlightAware Transoceanic
12:19PM 3.2822 143.7485 356° North 472 543 38,000  Level FlightAware Transoceanic
12:20PM 3.4143 143.7384 356° North 472 543 38,000  Level FlightAware Transoceanic
12:21PM 3.5464 143.7282 356° North 472 543 38,000  Level FlightAware Transoceanic
12:22PM 3.6786 143.7181 356° North 472 543 38,000  Level FlightAware Transoceanic
12:23PM 3.8107 143.7080 356° North 472 543 38,000  Level FlightAware Transoceanic
12:24PM 3.9143 143.7025 355° North 478 550 38,000  Level FlightAware Transoceanic
12:25PM 4.0500 143.6918 355° North 478 550 38,000  Level FlightAware Transoceanic
12:26PM 4.1857 143.6810 355° North 478 550 38,000  Level FlightAware Transoceanic
12:27PM 4.3214 143.6703 355° North 478 550 38,000  Level FlightAware Transoceanic
12:28PM 4.4571 143.6596 355° North 478 550 38,000  Level FlightAware Transoceanic
12:29PM 4.5929 143.6489 355° North 478 550 38,000  Level FlightAware Transoceanic
12:30PM 4.7286 143.6381 355° North 478 550 38,000  Level FlightAware Transoceanic
12:31PM 4.8643 143.6274 355° North 478 550 38,000  Level FlightAware Transoceanic
12:31PM 4.9333 143.6167 360° North 491 565 38,000  Level Oakland Oceanic (ODAPS)
12:32PM 5.0000 143.6167 351° North 478 550 38,000  Level FlightAware Transoceanic
12:32PM 5.0000 143.6167 351° North 484 557 38,000  Level Oakland Oceanic (ODAPS)
12:33PM 5.1357 143.5951 351° North 478 550 38,000  Level FlightAware Transoceanic
12:34PM 5.2713 143.5736 351° North 478 550 38,000  Level FlightAware Transoceanic
12:35PM 5.4070 143.5520 351° North 478 550 38,000  Level FlightAware Transoceanic
12:36PM 5.5427 143.5304 351° North 478 550 38,000  Level FlightAware Transoceanic
12:36PM 5.5500 143.5333 351° North 481 554 38,000  Level Oakland Oceanic (ODAPS)
12:37PM 5.6783 143.5088 351° North 478 550 38,000  Level FlightAware Transoceanic
12:38PM 5.7920 143.4907 351° North 484 557 38,000  Level FlightAware Transoceanic
12:39PM 5.9240 143.4697 351° North 484 557 38,000  Level FlightAware Transoceanic
12:40PM 6.0560 143.4487 351° North 484 557 38,000  Level FlightAware Transoceanic
12:41PM 6.1880 143.4276 351° North 484 557 38,000  Level FlightAware Transoceanic
12:42PM 6.3380 143.4071 351° North 481 554 38,000  Level FlightAware Transoceanic
12:43PM 6.4693 143.3860 351° North 481 554 38,000  Level FlightAware Transoceanic
12:44PM 6.6006 143.3649 351° North 481 554 38,000  Level FlightAware Transoceanic
12:45PM 6.7319 143.3438 351° North 481 554 38,000  Level FlightAware Transoceanic
12:45PM 6.7667 143.3333 351° North 481 554 38,000  Level Oakland Oceanic (ODAPS)
12:46PM 6.8632 143.3227 351° North 481 554 38,000  Level FlightAware Transoceanic
12:47PM 6.9946 143.3015 351° North 481 554 38,000  Level FlightAware Transoceanic
12:48PM 7.1259 143.2804 351° North 481 554 38,000  Level FlightAware Transoceanic
12:49PM 7.2572 143.2592 351° North 481 554 38,000  Level FlightAware Transoceanic
12:50PM 7.3885 143.2381 351° North 481 554 38,000  Level FlightAware Transoceanic
12:51PM 7.5198 143.2169 351° North 481 554 38,000  Level FlightAware Transoceanic
12:52PM 7.6758 143.1883 351° North 481 554 38,000  Level FlightAware Transoceanic
12:53PM 7.8056 143.1675 351° North 481 554 38,000  Level FlightAware Transoceanic
12:54PM 7.9355 143.1467 351° North 481 554 38,000  Level FlightAware Transoceanic
12:55PM 8.0653 143.1260 351° North 481 554 38,000  Level FlightAware Transoceanic
12:56PM 8.1952 143.1051 351° North 481 554 38,000  Level FlightAware Transoceanic
12:57PM 8.3251 143.0843 351° North 481 554 38,000  Level FlightAware Transoceanic
12:58PM 8.4549 143.0635 351° North 481 554 38,000  Level FlightAware Transoceanic
12:59PM 8.5848 143.0426 351° North 481 554 38,000  Level FlightAware Transoceanic
12:59PM 8.5833 143.0500 351° North 471 542 38,000  Level Oakland Oceanic (ODAPS)
01:00PM 8.7147 143.0218 351° North 481 554 38,000  Level FlightAware Transoceanic
01:01PM 8.8445 143.0009 351° North 481 554 38,000  Level FlightAware Transoceanic
01:02PM 8.9744 142.9800 351° North 481 554 38,000  Level FlightAware Transoceanic
01:03PM 9.1042 142.9591 351° North 481 554 38,000  Level FlightAware Transoceanic
01:04PM 9.2341 142.9382 351° North 481 554 38,000  Level FlightAware Transoceanic
01:05PM 9.2924 142.9320 351° North 471 542 38,000  Level FlightAware Transoceanic
01:06PM 9.4106 142.9123 351° North 471 542 38,000  Level FlightAware Transoceanic
01:07PM 9.5288 142.8926 351° North 471 542 38,000  Level FlightAware Transoceanic
01:08PM 9.6470 142.8728 351° North 471 542 38,000  Level FlightAware Transoceanic
01:09PM 9.7652 142.8531 351° North 471 542 38,000  Level FlightAware Transoceanic
01:09PM 9.9333 142.8833 356° North 510 587 38,000  Level Guam Center
01:10PM 9.8833 142.8333 356° North 471 542 38,000  Level FlightAware Transoceanic
01:11PM 10.0312 142.8240 356° North 471 542 38,000  Level FlightAware Transoceanic
01:11PM 10.0667 142.8667 353° North 480 552 38,000  Level Guam Center
01:12PM 10.1792 142.8147 356° North 471 542 38,000  Level FlightAware Transoceanic
01:12PM 10.2000 142.8667 360° North 480 552 38,000  Level Guam Center
01:13PM 10.3271 142.8054 356° North 471 542 38,000  Level FlightAware Transoceanic
01:13PM 10.3333 142.8500 353° North 480 552 38,000  Level Guam Center
01:14PM 10.4750 142.7961 356° North 471 542 38,000  Level FlightAware Transoceanic
01:14PM 10.4667 142.8667 North 490 564 38,000  Level Guam Center
01:15PM 10.6229 142.7867 356° North 471 542 38,000  Level FlightAware Transoceanic
01:15PM 10.6000 142.8667 360° North 480 552 38,000  Level Guam Center
01:16PM 10.7333 142.8833 North 470 541 38,000  Level Guam Center
01:17PM 10.8667 142.9167 14° North 470 541 38,000  Level Guam Center
01:18PM 10.9833 142.9500 16° North 470 541 38,000  Level Guam Center
01:19PM 11.1167 142.9833 14° North 470 541 38,000  Level Guam Center
01:20PM 11.2333 143.0000 North 470 541 38,000  Level Guam Center
01:21PM 11.3667 143.0333 14° North 470 541 38,000  Level Guam Center
01:22PM 11.5000 143.0500 North 480 552 38,000 120 Level Guam Center
01:23PM 11.6333 143.0667 North 480 552 38,300 960 Climbing Guam Center
01:24PM 11.7667 143.0833 North 460 529 40,000 840 Climbing Guam Center
01:25PM 11.9000 143.0500 346° North 460 529 40,000  Level Guam Center
01:26PM 12.0333 143.0167 346° North 470 541 40,000  Level Guam Center
01:27PM 12.1833 142.9667 342° North 480 552 40,000  Level Guam Center
01:28PM 12.2833 142.9333 342° North 480 552 40,000  Level Guam Center
01:29PM 12.4000 142.8833 337° Northwest 470 541 40,000  Level Guam Center
01:30PM 12.5333 142.8500 346° North 480 552 40,000  Level Guam Center
01:31PM 12.6667 142.8000 340° North 480 552 40,000  Level Guam Center
01:32PM 12.7833 142.7667 344° North 480 552 40,000  Level Guam Center
01:33PM 12.9167 142.7167 340° North 480 552 40,000  Level Guam Center
01:34PM 13.0500 142.6833 346° North 480 552 40,000  Level Guam Center
01:35PM 13.1833 142.6500 346° North 480 552 40,000  Level Guam Center
01:36PM 13.3167 142.6333 353° North 480 552 40,000  Level Guam Center
01:37PM 13.4500 142.6167 353° North 480 552 40,000  Level Guam Center
01:38PM 13.5667 142.6167 360° North 470 541 40,000  Level Guam Center
01:39PM 13.7000 142.6000 353° North 480 552 40,000  Level Guam Center
01:40PM 13.8500 142.6000 360° North 480 552 40,000  Level Guam Center
01:41PM 13.9833 142.5833 353° North 480 552 40,000  Level Guam Center
01:42PM 14.1167 142.5833 360° North 490 564 40,000  Level Guam Center
01:43PM 14.2500 142.5667 353° North 480 552 40,000  Level Guam Center
01:44PM 14.3833 142.5500 353° North 480 552 40,000  Level Guam Center
01:45PM 14.5167 142.5333 353° North 500 575 40,000  Level Guam Center
01:46PM 14.6500 142.5000 346° North 490 564 40,000  Level Guam Center
01:47PM 14.7667 142.4500 337° Northwest 480 552 40,000  Level Guam Center
01:48PM 14.9000 142.4167 346° North 480 552 40,000  Level Guam Center
01:49PM 15.0167 142.3667 338° Northwest 480 552 40,000  Level Guam Center
01:50PM 15.1500 142.3333 346° North 470 541 40,000  Level Guam Center
01:51PM 15.2833 142.3167 353° North 460 529 40,000  Level Guam Center
01:52PM 15.4167 142.3000 353° North 470 541 40,000  Level Guam Center
01:53PM 15.5500 142.2833 353° North 480 552 40,000  Level Guam Center
01:54PM 15.6833 142.2667 353° North 480 552 40,000  Level Guam Center
01:55PM 15.8167 142.2500 353° North 480 552 40,000  Level Guam Center
01:56PM 15.9500 142.2333 353° North 480 552 40,000  Level Guam Center
01:57PM 16.0833 142.2333 360° North 480 552 40,000  Level Guam Center
01:58PM 16.2167 142.2167 353° North 470 541 40,000  Level Guam Center
01:59PM 16.3500 142.1833 347° North 480 552 40,000  Level Guam Center
02:00PM 16.4833 142.1833 360° North 470 541 40,000  Level Guam Center
02:02PM 16.7833 142.1500 341° North 481 554 40,000  Level Oakland Oceanic (ODAPS)
02:05PM 17.1667 142.0167 341° North 481 554 40,000  Level Oakland Oceanic (ODAPS)
02:08PM 17.5509 141.8738 341° North 481 554 40,000  Level FlightAware Transoceanic
02:09PM 17.6788 141.8276 341° North 481 554 40,000  Level FlightAware Transoceanic
02:10PM 17.8067 141.7812 341° North 481 554 40,000  Level FlightAware Transoceanic
02:11PM 17.9342 141.7384 341° North 481 554 40,000  Level FlightAware Transoceanic
02:12PM 18.0621 141.6918 341° North 481 554 40,000  Level FlightAware Transoceanic
02:12PM 17.9000 141.7500 341° North 481 554 40,000  Level Oakland Oceanic (ODAPS)
02:13PM 18.1899 141.6452 341° North 481 554 40,000  Level FlightAware Transoceanic
02:14PM 18.3178 141.5984 341° North 481 554 40,000  Level FlightAware Transoceanic
02:15PM 18.4456 141.5516 341° North 481 554 40,000  Level FlightAware Transoceanic
02:16PM 18.5735 141.5047 341° North 481 554 40,000  Level FlightAware Transoceanic
02:16PM 18.5667 141.5000 341° North 481 554 40,000  Level Oakland Oceanic (ODAPS)
02:17PM 18.7013 141.4578 341° North 481 554 40,000  Level FlightAware Transoceanic
02:18PM 18.8049 141.4191 341° North 481 554 40,000  Level FlightAware Transoceanic
02:19PM 18.9341 141.3715 341° North 481 554 40,000  Level FlightAware Transoceanic
02:20PM 19.0633 141.3239 341° North 481 554 40,000  Level FlightAware Transoceanic
02:21PM 19.1925 141.2761 341° North 481 554 40,000  Level FlightAware Transoceanic
02:21PM 19.2333 141.2667 341° North 477 549 40,000  Level Oakland Oceanic (ODAPS)
02:22PM 19.3356 141.2187 341° North 481 554 40,000  Level FlightAware Transoceanic
02:23PM 19.4637 141.1716 341° North 481 554 40,000  Level FlightAware Transoceanic
02:24PM 19.5918 141.1244 341° North 481 554 40,000  Level FlightAware Transoceanic
02:25PM 19.7199 141.0771 341° North 481 554 40,000  Level FlightAware Transoceanic
02:26PM 19.8479 141.0298 341° North 481 554 40,000  Level FlightAware Transoceanic
02:27PM 19.9760 140.9823 341° North 481 554 40,000  Level FlightAware Transoceanic
02:27PM 19.8500 141.0333 341° North 477 549 40,000  Level Oakland Oceanic (ODAPS)
02:28PM 19.9908 140.9828 341° North 477 549 40,000  Level FlightAware Transoceanic
02:29PM 20.1170 140.9352 340° North 477 549 40,000  Level FlightAware Transoceanic
02:30PM 20.2432 140.8876 340° North 477 549 40,000  Level FlightAware Transoceanic
02:31PM 20.3693 140.8398 340° North 477 549 40,000  Level FlightAware Transoceanic
02:32PM 20.4955 140.7920 340° North 477 549 40,000  Level FlightAware Transoceanic
02:33PM 20.6168 140.7452 341° North 477 549 40,000  Level FlightAware Transoceanic
02:34PM 20.7445 140.6969 341° North 477 549 40,000  Level FlightAware Transoceanic
02:35PM 20.8723 140.6485 340° North 477 549 40,000  Level FlightAware Transoceanic
02:36PM 21.0000 140.6000 342° North 477 549 40,000  Level FlightAware Transoceanic
02:37PM 21.1292 140.5550 342° North 477 549 40,000  Level FlightAware Transoceanic
02:38PM 21.2584 140.5100 342° North 477 549 40,000  Level FlightAware Transoceanic
02:39PM 21.3876 140.4649 342° North 477 549 40,000  Level FlightAware Transoceanic
02:40PM 21.5168 140.4197 342° North 477 549 40,000  Level FlightAware Transoceanic
02:41PM 21.6460 140.3744 342° North 477 549 40,000  Level FlightAware Transoceanic
02:42PM 21.7752 140.3291 342° North 477 549 40,000  Level FlightAware Transoceanic
02:43PM 21.9043 140.2836 342° North 477 549 40,000  Level FlightAware Transoceanic
02:44PM 22.0335 140.2381 342° North 477 549 40,000  Level FlightAware Transoceanic
02:45PM 22.1626 140.1925 342° North 477 549 40,000  Level FlightAware Transoceanic
02:46PM 22.2917 140.1468 342° North 477 549 40,000  Level FlightAware Transoceanic
02:47PM 22.4208 140.1010 342° North 477 549 40,000  Level FlightAware Transoceanic
02:48PM 22.5499 140.0551 342° North 477 549 40,000  Level FlightAware Transoceanic
02:49PM 22.6790 140.0092 342° North 477 549 40,000  Level FlightAware Transoceanic
02:50PM 22.8080 139.9632 342° North 477 549 40,000  Level FlightAware Transoceanic
02:51PM 22.9371 139.9171 342° North 477 549 40,000  Level FlightAware Transoceanic
02:52PM 23.0661 139.8708 342° North 477 549 40,000  Level FlightAware Transoceanic
02:53PM 23.1952 139.8246 342° North 477 549 40,000  Level FlightAware Transoceanic
02:54PM 23.3242 139.7782 342° North 477 549 40,000  Level FlightAware Transoceanic
02:55PM 23.4532 139.7317 342° North 477 549 40,000  Level FlightAware Transoceanic
02:56PM 23.5821 139.6851 342° North 477 549 40,000  Level FlightAware Transoceanic
02:57PM 23.7111 139.6385 342° North 477 549 40,000  Level FlightAware Transoceanic
02:58PM 23.8401 139.5917 342° North 477 549 40,000  Level FlightAware Transoceanic
02:59PM 23.9690 139.5449 342° North 477 549 40,000  Level FlightAware Transoceanic
03:00PM 24.0979 139.4979 342° North 477 549 40,000  Level FlightAware Transoceanic
03:01PM 24.2268 139.4509 342° North 477 549 40,000  Level FlightAware Transoceanic
03:02PM 24.3557 139.4038 342° North 477 549 40,000  Level FlightAware Transoceanic
03:03PM 24.4846 139.3565 342° North 477 549 40,000  Level FlightAware Transoceanic
03:04PM 24.6135 139.3092 342° North 477 549 40,000  Level FlightAware Transoceanic
03:05PM 24.7423 139.2618 342° North 477 549 40,000  Level FlightAware Transoceanic
03:06PM 24.8712 139.2143 341° North 477 549 40,000  Level FlightAware Transoceanic
03:07PM 24.9884 139.1558 336° Northwest  Level FlightAware Approximate
03:08PM 25.1056 139.0972 336° Northwest  Level FlightAware Approximate
03:09PM 25.1040 139.1120 342° North  Level FlightAware Approximate
03:10PM 25.2261 139.0673 342° North  Level FlightAware Approximate
03:11PM 25.3483 139.0225 342° North  Level FlightAware Approximate
03:12PM 25.4704 138.9776 342° North  Level FlightAware Approximate
03:13PM 25.5925 138.9326 342° North  Level FlightAware Approximate
03:14PM 25.7146 138.8875 342° North  Level FlightAware Approximate
03:15PM 25.8367 138.8423 342° North  Level FlightAware Approximate
03:16PM 25.9588 138.7971 342° North  Level FlightAware Approximate
03:17PM 26.0809 138.7517 342° North  Level FlightAware Approximate
03:18PM 26.2029 138.7062 342° North  Level FlightAware Approximate
03:19PM 26.3250 138.6607 342° North  Level FlightAware Approximate
03:20PM 26.4470 138.6150 341° North  Level FlightAware Approximate
03:21PM 26.5690 138.5693 341° North  Level FlightAware Approximate
03:22PM 26.6910 138.5234 341° North  Level FlightAware Approximate
03:23PM 26.8130 138.4775 341° North  Level FlightAware Approximate
03:24PM 26.9349 138.4315 341° North  Level FlightAware Approximate
03:25PM 27.0569 138.3853 341° North  Level FlightAware Approximate
03:26PM 27.1788 138.3390 341° North  Level FlightAware Approximate
03:27PM 27.3007 138.2925 341° North  Level FlightAware Approximate
03:28PM 27.4225 138.2459 341° North  Level FlightAware Approximate
03:29PM 27.5444 138.1992 341° North  Level FlightAware Approximate
03:30PM 27.6662 138.1524 341° North  Level FlightAware Approximate
03:31PM 27.7880 138.1055 341° North  Level FlightAware Approximate
03:32PM 27.9098 138.0585 341° North  Level FlightAware Approximate
03:33PM 28.0316 138.0114 341° North  Level FlightAware Approximate
03:34PM 28.1533 137.9641 341° North  Level FlightAware Approximate
03:35PM 28.2751 137.9168 341° North  Level FlightAware Approximate
03:36PM 28.3968 137.8694 341° North  Level FlightAware Approximate
03:37PM 28.5185 137.8218 341° North  Level FlightAware Approximate
03:38PM 28.6402 137.7741 341° North  Level FlightAware Approximate
03:39PM 28.7619 137.7263 341° North  Level FlightAware Approximate
03:40PM 28.8835 137.6785 341° North  Level FlightAware Approximate
03:41PM 29.0052 137.6305 341° North  Level FlightAware Approximate
03:42PM 29.1268 137.5824 341° North  Level FlightAware Approximate
03:43PM 29.2484 137.5341 341° North  Level FlightAware Approximate
03:44PM 29.3700 137.4858 341° North  Level FlightAware Approximate
03:45PM 29.4916 137.4373 341° North  Level FlightAware Approximate
03:46PM 29.6131 137.3887 341° North  Level FlightAware Approximate
03:47PM 29.7347 137.3401 341° North  Level FlightAware Approximate
03:48PM 29.8562 137.2912 341° North  Level FlightAware Approximate
03:49PM 29.9777 137.2423 341° North  Level FlightAware Approximate
03:50PM 30.0984 137.1909 340° North  Level FlightAware Approximate
03:51PM 30.2190 137.1387 340° North  Level FlightAware Approximate
03:52PM 30.3395 137.0865 339° North  Level FlightAware Approximate
03:53PM 30.4600 137.0341 339° North  Level FlightAware Approximate
03:54PM 30.5814 136.9844 341° North  Level FlightAware Approximate
03:55PM 30.7031 136.9361 341° North  Level FlightAware Approximate
03:56PM 30.8249 136.8876 341° North  Level FlightAware Approximate
03:57PM 30.9466 136.8389 341° North  Level FlightAware Approximate
03:58PM 31.0683 136.7902 341° North  Level FlightAware Approximate
03:59PM 31.1901 136.7413 341° North  Level FlightAware Approximate
04:00PM 31.3118 136.6924 341° North  Level FlightAware Approximate
04:01PM 31.4332 136.6427 339° North  Level FlightAware Approximate
04:02PM 31.5536 136.5894 339° North  Level FlightAware Approximate
04:02PM 31.7320 136.5700 339° North 492 566 40,000  Level FlightAware
04:03PM 31.6740 136.5359 339° North  Level FlightAware Approximate
04:03PM 31.8330 136.5270 340° North 492 566 40,000  Level FlightAware
04:03PM 31.8980 136.4990 340° North 492 566 40,000  Level FlightAware
04:04PM 31.9660 136.4700 340° North 492 566 40,000  Level FlightAware
04:04PM 32.0310 136.4420 340° North 492 566 40,000  Level FlightAware
04:05PM 32.1480 136.3960 342° North 40,000  Level FlightAware
04:06PM 32.2470 136.3530 340° North 496 571 40,000 60 Level FlightAware
04:06PM 32.3200 136.3230 341° North 497 572 40,100 60 Climbing FlightAware
04:07PM 32.4250 136.2780 340° North 496 571 40,100  Level FlightAware
04:08PM 32.5120 136.2410 340° North 501 577 40,100 -120 Level FlightAware
04:08PM 32.5860 136.2090 340° North 500 575 40,000 -120 Descending FlightAware
04:09PM 32.6630 136.1730 339° North 498 573 40,000  Level FlightAware
04:09PM 32.7210 136.1290 327° Northwest 495 570 40,000  Level FlightAware
04:10PM 32.7830 136.0680 320° Northwest 497 572 40,000 60 Level FlightAware
04:11PM 32.8720 135.9800 320° Northwest 499 574 40,100 60 Climbing FlightAware
04:11PM 32.9230 135.9280 319° Northwest 497 572 40,100  Level FlightAware
04:12PM 33.0070 135.8360 317° Northwest 490 564 40,100 -120 Level FlightAware
04:13PM 33.0650 135.7710 317° Northwest 488 562 40,000 -120 Descending FlightAware
04:13PM 33.1240 135.7070 318° Northwest 488 562 40,000  Level FlightAware
04:14PM 33.1840 135.6410 317° Northwest 492 566 40,000 60 Level FlightAware
04:14PM 33.2510 135.5670 317° Northwest 488 562 40,100  Climbing FlightAware
04:15PM 33.2880 135.5090 307° West 484 557 40,000 -120 Descending FlightAware
04:15PM 33.3220 135.4320 298° West 481 554 40,000  Level FlightAware
04:16PM 33.3420 135.3420 285° West 478 550 40,000  Level FlightAware
04:17PM 33.3510 135.2510 277° West 477 549 40,000  Level FlightAware
04:17PM 33.3620 135.1490 277° West 476 548 40,000  Level FlightAware
04:18PM 33.3700 135.0550 276° West 477 549 40,000  Level FlightAware
04:19PM 33.3800 134.9500 277° West 480 552 40,000  Level FlightAware
04:19PM 33.3870 134.8720 276° West 483 556 40,000 60 Level FlightAware
04:20PM 33.3950 134.7810 276° West 484 557 40,100 60 Climbing FlightAware
04:20PM 33.4050 134.6720 276° West 485 558 40,100  Level FlightAware
04:21PM 33.4120 134.5920 276° West 486 559 40,100  Level FlightAware
04:21PM 33.4200 134.5050 276° West 486 559 40,100  Level FlightAware
04:22PM 33.4290 134.4050 276° West 485 558 40,100  Level FlightAware
04:23PM 33.4370 134.3110 276° West 485 558 40,100 -120 Level FlightAware
04:23PM 33.4450 134.2170 276° West 485 558 40,000 -120 Descending FlightAware
04:24PM 33.4530 134.1260 276° West 484 557 40,000  Level FlightAware
04:24PM 33.4610 134.0320 276° West 484 557 40,000  Level FlightAware
04:25PM 33.4690 133.9370 276° West 485 558 40,000  Level FlightAware
04:25PM 33.4770 133.8440 276° West 484 557 40,000  Level FlightAware
04:26PM 33.4840 133.7540 275° West 484 557 40,000  Level FlightAware
04:27PM 33.4930 133.6450 276° West 484 557 40,000  Level FlightAware
04:27PM 33.5000 133.5650 276° West 484 557 40,000  Level FlightAware
04:28PM 33.5070 133.4780 276° West 484 557 40,000  Level FlightAware
04:28PM 33.5160 133.3690 276° West 485 558 40,000  Level FlightAware
04:29PM 33.5220 133.2850 275° West 486 559 40,000  Level FlightAware
04:30PM 33.5300 133.1850 276° West 486 559 40,000 60 Level FlightAware
04:30PM 33.5370 133.0900 275° West 486 559 40,100 60 Climbing FlightAware
04:31PM 33.5430 133.0100 275° West 486 559 40,100  Level FlightAware
04:31PM 33.5510 132.9020 275° West 488 562 40,100  Level FlightAware
04:32PM 33.5620 132.8220 279° West 484 557 40,100 -120 Level FlightAware
04:32PM 33.5850 132.7470 290° West 481 554 40,000 -120 Descending FlightAware
04:33PM 33.6140 132.6590 292° West 483 556 40,000 60 Level FlightAware
04:33PM 33.6430 132.5750 293° West 484 557 40,100 60 Climbing FlightAware
04:34PM 33.6730 132.4850 292° West 480 552 40,100 -120 Level FlightAware
04:35PM 33.7110 132.3740 292° West 482 555 40,000 -120 Descending FlightAware
04:35PM 33.7400 132.2880 292° West 481 554 40,000  Level FlightAware
04:36PM 33.7650 132.2150 292° West 484 557 40,000  Level FlightAware
04:36PM 33.7950 132.1260 292° West 483 556 40,000  Level FlightAware
04:37PM 33.8260 132.0350 292° West 484 557 40,000  Level FlightAware
04:38PM 33.8550 131.9470 292° West 486 559 40,000  Level FlightAware
04:38PM 33.8840 131.8600 292° West 486 559 40,000  Level FlightAware
04:39PM 33.9130 131.7740 292° West 487 560 40,000  Level FlightAware
04:39PM 33.9430 131.6840 292° West 487 560 40,000 60 Level FlightAware
04:40PM 33.9720 131.5940 291° West 488 562 40,100 60 Climbing FlightAware
04:41PM 34.0020 131.5050 292° West 488 562 40,100  Level FlightAware
04:41PM 34.0340 131.4080 292° West 489 563 40,100  Level FlightAware
04:42PM 34.0640 131.3160 292° West 489 563 40,100  Level FlightAware
04:42PM 34.0920 131.2310 292° West 489 563 40,100  Level FlightAware
04:43PM 34.1250 131.1290 291° West 488 562 40,100  Level FlightAware
04:44PM 34.1500 131.0510 291° West 486 559 40,100  Level FlightAware
04:44PM 34.1790 130.9640 292° West 484 557 40,100 -120 Level FlightAware
04:45PM 34.2070 130.8750 291° West 480 552 40,000 -120 Descending FlightAware
04:45PM 34.2350 130.7890 292° West 479 551 40,000  Level FlightAware
04:46PM 34.2640 130.6970 291° West 479 551 40,000  Level FlightAware
04:47PM 34.2960 130.5990 292° West 480 552 40,000  Level FlightAware
04:47PM 34.3240 130.5110 291° West 480 552 40,000  Level FlightAware
04:48PM 34.3480 130.4370 291° West 480 552 40,000  Level FlightAware
04:48PM 34.3740 130.3540 291° West 482 555 40,000  Level FlightAware
04:49PM 34.4050 130.2560 291° West 488 562 40,000 60 Level FlightAware
04:50PM 34.4320 130.1710 291° West 489 563 40,100 60 Climbing FlightAware
04:50PM 34.4610 130.0790 291° West 484 557 40,100  Level FlightAware
04:51PM 34.4930 129.9770 291° West 477 549 40,100 -120 Level FlightAware
04:51PM 34.5130 129.9130 291° West 476 548 40,000 -120 Descending FlightAware
04:52PM 34.5430 129.8160 291° West 475 547 40,000  Level FlightAware
04:53PM 34.5710 129.7260 291° West 478 550 40,000  Level FlightAware
04:53PM 34.5930 129.6560 291° West 480 552 40,000  Level FlightAware
04:54PM 34.6260 129.5510 291° West 482 555 40,000 60 Level FlightAware
04:54PM 34.6670 129.4310 293° West 483 556 40,100 60 Climbing FlightAware
04:55PM 34.7030 129.3680 305° West 484 557 40,100  Level FlightAware
04:55PM 34.7620 129.3010 317° Northwest 486 559 40,100  Level FlightAware
04:56PM 34.8310 129.2500 329° Northwest 486 559 40,100  Level FlightAware
04:57PM 34.8990 129.2000 329° Northwest 490 564 40,100  Level FlightAware
04:57PM 34.9560 129.1590 329° Northwest 487 560 40,100 -120 Level FlightAware
04:58PM 35.0460 129.0950 330° Northwest 481 554 40,000 -120 Descending FlightAware
04:58PM 35.1090 129.0500 330° Northwest 471 542 40,000  Level FlightAware
04:59PM 35.1820 128.9960 329° Northwest 470 541 40,000  Level FlightAware
05:00PM 35.2410 128.9530 329° Northwest 470 541 40,000  Level FlightAware
05:00PM 35.2990 128.9100 329° Northwest 470 541 40,000  Level FlightAware
05:01PM 35.3560 128.8680 329° Northwest 470 541 40,000  Level FlightAware
05:02PM 35.4150 128.8250 329° Northwest 470 541 40,000  Level FlightAware
05:02PM 35.4750 128.7810 329° Northwest 470 541 40,000  Level FlightAware
05:03PM 35.5340 128.7370 329° Northwest 470 541 40,000  Level FlightAware
05:04PM 35.5910 128.6950 329° Northwest 470 541 40,000  Level FlightAware
05:04PM 35.6480 128.6530 329° Northwest 470 541 40,000  Level FlightAware
05:05PM 35.7050 128.6110 329° Northwest 470 541 40,000  Level FlightAware
05:05PM 35.7620 128.5690 329° Northwest 470 541 40,000  Level FlightAware
05:06PM 35.8210 128.5250 329° Northwest 470 541 40,000  Level FlightAware
05:07PM 35.8780 128.4830 329° Northwest 470 541 40,000  Level FlightAware
05:07PM 35.9320 128.4430 329° Northwest 470 541 40,000  Level FlightAware
05:08PM 35.9890 128.4010 329° Northwest 470 541 40,000  Level FlightAware
05:08PM 36.0460 128.3580 329° Northwest 470 541 40,000 -2,820 Level FlightAware
05:11PM 36.2422 128.1015 325° Northwest  Level Estimated
05:12PM 36.3305 127.9854 324° Northwest  Level Estimated
05:13PM 36.4149 127.8648 311° West  Level FlightAware Approximate
05:14PM 36.5033 127.7485 324° Northwest  Level Estimated
05:15PM 36.6073 127.6541 324° Northwest  Level FlightAware Approximate
05:16PM 36.6938 127.5353 325° Northwest  Level Estimated
05:16PM 37.0450 127.5930 325° Northwest 424 488 18,000  Level FlightAware
05:16PM 37.0860 127.5210 306° West 419 482 18,000  Level FlightAware
05:17PM 37.1250 127.4510 305° West 422 486 18,000  Level FlightAware
05:17PM 37.1630 127.3830 305° West 418 481 18,000  Level FlightAware
05:18PM 37.2020 127.3120 305° West 414 476 18,000  Level FlightAware
05:18PM 37.2420 127.2410 305° West 412 474 18,000 -960 Level FlightAware
05:19PM 37.2790 127.1730 304° West 413 475 16,900 -1,920 Descending FlightAware
05:19PM 37.3070 127.1230 305° West 421 484 16,100 -1,140 Descending FlightAware
05:20PM 37.3510 127.0430 305° West 412 474 15,700 -720 Descending FlightAware
05:21PM 37.3890 126.9730 304° West 403 464 15,200 -780 Descending FlightAware
05:22PM 37.3990 126.8650 277° West 380 437 14,600 -780 Descending FlightAware
05:22PM 37.3840 126.8020 253° West 359 413 14,200 -840 Descending FlightAware
05:23PM 37.3690 126.7300 255° West 362 417 13,700 -540 Descending FlightAware
05:23PM 37.3520 126.6560 254° West 361 415 13,500 -2,340 Descending FlightAware
05:24PM 37.3320 126.5710 254° West 352 405 10,600 -2,340 Descending FlightAware
05:25PM 37.3170 126.5060 254° West 352 405 10,600  Level FlightAware
05:25PM 37.3040 126.4450 255° West 352 405 10,600  Level FlightAware
05:26PM 37.2900 126.3850 254° West 352 405 10,600 -780 Level FlightAware
05:29PM 37.4691 126.4505 16° North  Level Estimated
05:30PM 37.4691 126.4505 335° Northwest  Level Estimated
05:31PM 37.4691 126.4505 335° Northwest  Level Estimated
05:32PM 37.4691 126.4505 335° Northwest  Level Estimated
05:33PM 37.4691 126.4505 335° Northwest  Level Estimated
05:33PM 37.5360 126.1830 335° Northwest 227 261 4,800  Level FlightAware
05:33PM 37.5560 126.2000 34° Northeast 227 261 4,800  Level FlightAware
05:36PM 37.4691 126.4505 114° Southeast  Level Estimated
05:37PM 37.4691 126.4505 205° Southwest  Level Estimated
05:38PM 37.4691 126.4505 335° Northwest  Level Estimated
05:39PM 37.4691 126.4505 335° Northwest  Level Estimated
05:40PM 37.4691 126.4505 335° Northwest  Level Estimated
05:41PM 37.4691 126.4505 335° Northwest  Level Estimated
05:42PM 37.4691 126.4505 335° Northwest  Level Estimated
05:43PM 37.4691 126.4505 335° Northwest  Level Estimated
05:44PM 37.4691 126.4505 335° Northwest  Level Estimated
05:45PM 37.4691 126.4505 335° Northwest  Level Estimated
05:46PM 37.4691 126.4505 335° Northwest  Level Estimated
05:47PM 37.4691 126.4505 335° Northwest  Level Estimated
05:48PM 37.4691 126.4505 335° Northwest  Level Estimated